Flight Track Log - Related Links

Times and Time Zones

All times are in EDT time to prevent confusion due to time zone crossing. See the ASQ5650 flight status page for this flight to view local times or setup timezone preferences in your user account.

Time Position Orientation Groundspeed Altitude Reporting Facility
EDT Latitude Longitude Course Direction KTS MPH feet Rate Location/Type
Thu 09:50:10 AM 33.6500 -84.4500 287° West 156 180 2,500  Level Atlanta TRACON
Thu 09:51:10 AM 33.6667 -84.5167 287° West 222 255 5,000 2,571 Climbing Atlanta TRACON
Thu 09:52:16 AM 33.7167 -84.5833 312° West 271 312 7,900 2,476 Climbing Atlanta TRACON
Thu 09:53:16 AM 33.7833 -84.5667 12° North 299 344 10,200 1,837 Climbing Atlanta TRACON
Thu 09:55:45 AM 33.8150 -84.2789 82° East 372 428 14,300 1,665 Climbing Atlanta Center
Thu 09:56:45 AM 33.8172 -84.1514 89° East 380 437 16,000 1,700 Climbing Atlanta Center
Thu 09:57:45 AM 33.8214 -84.0164 88° East 386 444 17,700 1,500 Climbing Atlanta Center
Thu 09:58:45 AM 33.8233 -83.8864 89° East 386 444 19,000 650 Climbing Atlanta Center
Thu 09:59:45 AM 33.8253 -83.7461 89° East 402 463 19,000  Level Atlanta Center
Thu 10:00:45 AM 33.8289 -83.5986 88° East 429 494 19,000  Level Atlanta Center
Thu 10:01:45 AM 33.8306 -83.4661 89° East 441 507 19,000  Level Atlanta Center
Thu 10:02:45 AM 33.8339 -83.3136 88° East 446 513 19,000  Level Atlanta Center
Thu 10:03:45 AM 33.8369 -83.1586 89° East 451 519 19,000  Level Atlanta Center
Thu 10:04:45 AM 33.8400 -83.0083 89° East 456 525 19,000  Level Atlanta Center
Thu 10:05:45 AM 33.8408 -82.8608 90° East 451 519 19,000  Level Atlanta Center
Thu 10:06:45 AM 33.8433 -82.7108 89° East 446 513 19,000  Level Atlanta Center
Thu 10:07:45 AM 33.8458 -82.5606 89° East 441 507 19,000  Level Atlanta Center
Thu 10:08:45 AM 33.8481 -82.3956 89° East 436 502 19,000 -690 Level Atlanta Center
Thu 10:10:39 AM 33.8528 -82.1272 89° East 452 520 17,000 -1,621 Descending Jacksonville Center
Thu 10:11:39 AM 33.8539 -81.9872 89° East 435 501 14,300 -2,450 Descending Jacksonville Center
Thu 10:12:39 AM 33.8550 -81.8472 89° East 420 483 12,100 -1,650 Descending Jacksonville Center
Thu 10:13:39 AM 33.8561 -81.7222 89° East 400 460 11,000 -1,050 Descending Jacksonville Center
Thu 10:14:39 AM 33.8569 -81.5997 89° East 376 433 10,000 -850 Descending Jacksonville Center
Thu 10:15:39 AM 33.8578 -81.4944 89° East 341 392 9,300 -500 Descending Jacksonville Center
Thu 10:16:39 AM 33.8567 -81.3969 91° East 309 356 9,000 -900 Descending Jacksonville Center
Thu 10:17:39 AM 33.8556 -81.3044 91° East 287 330 7,500 -1,367 Descending Jacksonville Center
Thu 10:19:39 AM 33.8594 -81.1194 88° East 276 318 4,900 -1,500 Descending Jacksonville Center
Thu 10:20:39 AM 33.8644 -81.0242 86° East 264 304 3,000 -1,900 Descending Jacksonville Center
Thu 10:22:00 AM 33.9333 -81.1167 328° Northwest  Level FlightAware Approximate
Thu 10:29:00 AM 33.9388 -81.1195 328° Northwest  Level Estimated
Thu 10:30:00 AM 33.9333 -81.1167 328° Northwest  Level FlightAware Approximate
Thu 10:31:00 AM 33.9388 -81.1195 328° Northwest  Level Estimated
Thu 10:32:00 AM 33.9333 -81.1167 328° Northwest  Level FlightAware Approximate

Login

Don't have an account? Register now (free) for customized features, flight alerts, and more!